Time;durP1;ratioP1;P1;durP2;ratioP2;P2;SDS_P1;SDS_P2;PMS_P1;PMS_P2;Temp;Humidity;BMP_temperature;BMP_pressure;BME280_temperature;BME280_humidity;BME280_pressure;Samples;Min_cycle;Max_cycle;Signal;HPM_P1;HPM_P2
2023/04/24 00:01:48;;;;;;;1.15;0.85;;;11.60;99.90;;;;;;5055140;28;20029;-67
2023/04/24 00:04:16;;;;;;;0.75;0.75;;;11.60;99.90;;;;;;5054973;28;20119;-68
2023/04/24 00:06:42;;;;;;;1.55;0.82;;;11.60;99.90;;;;;;5054885;28;20032;-67
2023/04/24 00:09:09;;;;;;;1.70;0.90;;;11.40;99.90;;;;;;5054916;28;20467;-67
2023/04/24 00:11:35;;;;;;;1.45;0.90;;;11.40;99.90;;;;;;5054901;28;20032;-67
2023/04/24 00:14:01;;;;;;;5.15;0.95;;;11.40;99.90;;;;;;5054260;28;20033;-67
2023/04/24 00:16:27;;;;;;;0.93;0.88;;;11.40;99.90;;;;;;5055273;28;20029;-67
2023/04/24 00:18:53;;;;;;;2.25;0.70;;;11.40;99.90;;;;;;5055220;28;20044;-67
2023/04/24 00:21:19;;;;;;;3.05;0.98;;;11.40;99.90;;;;;;5055023;28;20108;-67
2023/04/24 00:23:44;;;;;;;1.17;0.80;;;11.40;99.90;;;;;;5054203;28;20467;-67
2023/04/24 00:26:10;;;;;;;1.73;0.80;;;11.40;99.90;;;;;;5054833;28;20082;-67
2023/04/24 00:28:35;;;;;;;3.33;1.10;;;11.40;99.90;;;;;;5054972;28;20083;-67
2023/04/24 00:31:01;;;;;;;1.77;1.10;;;11.50;99.90;;;;;;5054765;28;20179;-67
2023/04/24 00:33:27;;;;;;;2.40;0.98;;;11.40;99.90;;;;;;5054019;28;20029;-67
2023/04/24 00:35:52;;;;;;;1.58;1.05;;;11.40;99.90;;;;;;5054910;28;20040;-67
2023/04/24 00:38:18;;;;;;;1.65;0.98;;;11.40;99.90;;;;;;5054247;28;20032;-67
2023/04/24 00:40:44;;;;;;;1.15;0.80;;;11.30;99.90;;;;;;5054757;28;20033;-67
2023/04/24 00:43:09;;;;;;;2.25;1.13;;;11.30;99.90;;;;;;5054326;28;20029;-67
2023/04/24 00:45:35;;;;;;;3.45;1.00;;;11.30;99.90;;;;;;5054305;28;20033;-67
2023/04/24 00:48:01;;;;;;;2.20;1.30;;;11.30;99.90;;;;;;5054593;28;20078;-67
2023/04/24 00:50:28;;;;;;;1.25;1.15;;;11.20;99.90;;;;;;5054374;28;20032;-67
2023/04/24 00:52:54;;;;;;;2.00;1.33;;;11.10;99.90;;;;;;5053529;28;20056;-67
2023/04/24 00:55:20;;;;;;;3.72;1.55;;;11.10;99.90;;;;;;5054398;28;20040;-67
2023/04/24 00:57:47;;;;;;;2.90;1.40;;;11.10;99.90;;;;;;5054195;28;20025;-67
2023/04/24 01:00:14;;;;;;;1.90;1.20;;;11.10;99.90;;;;;;5054479;28;20029;-67
2023/04/24 01:02:43;;;;;;;1.20;1.10;;;11.10;99.90;;;;;;5054497;28;20029;-67
2023/04/24 01:05:09;;;;;;;1.98;1.42;;;11.20;99.90;;;;;;5054047;28;20032;-67
2023/04/24 01:07:35;;;;;;;2.38;1.40;;;11.30;99.90;;;;;;5054171;28;20059;-67
2023/04/24 01:10:01;;;;;;;1.88;1.35;;;11.20;99.90;;;;;;5053856;28;20029;-67
2023/04/24 01:12:26;;;;;;;1.45;1.30;;;11.10;99.90;;;;;;5054398;28;20047;-67
2023/04/24 01:14:52;;;;;;;3.10;1.70;;;11.00;99.90;;;;;;5054292;28;20032;-67
2023/04/24 01:17:17;;;;;;;1.92;1.70;;;11.00;99.90;;;;;;5054463;28;20108;-68
2023/04/24 01:19:44;;;;;;;2.70;1.45;;;11.00;99.90;;;;;;5054183;28;20032;-67
2023/04/24 01:22:12;;;;;;;1.92;1.50;;;10.80;99.90;;;;;;5053988;28;20127;-67
2023/04/24 01:24:38;;;;;;;2.70;1.50;;;10.80;99.90;;;;;;5053807;28;20454;-67
2023/04/24 01:27:04;;;;;;;3.67;1.90;;;10.80;99.90;;;;;;5054196;28;20475;-67
2023/04/24 01:29:29;;;;;;;1.75;1.63;;;10.80;99.90;;;;;;5053046;28;20055;-67
2023/04/24 01:31:55;;;;;;;3.13;1.83;;;10.70;99.90;;;;;;5053478;28;20053;-67
2023/04/24 01:34:21;;;;;;;3.10;2.10;;;10.70;99.90;;;;;;5053113;28;20025;-67
2023/04/24 01:36:47;;;;;;;2.90;1.70;;;10.70;99.90;;;;;;5053729;28;20033;-67
2023/04/24 01:39:13;;;;;;;3.35;2.08;;;10.70;99.90;;;;;;5053603;28;20036;-67
2023/04/24 01:41:39;;;;;;;3.20;1.95;;;10.60;99.90;;;;;;5054005;28;20036;-67
2023/04/24 01:44:04;;;;;;;3.40;2.10;;;10.70;99.90;;;;;;5053958;28;20129;-67
2023/04/24 01:46:31;;;;;;;3.10;2.10;;;10.50;1.00;;;;;;5053948;28;20409;-67
2023/04/24 01:48:59;;;;;;;2.80;2.20;;;10.50;1.00;;;;;;5053474;28;20032;-67
2023/04/24 01:51:25;;;;;;;3.25;1.90;;;10.50;1.00;;;;;;5053336;28;20025;-67
2023/04/24 01:53:50;;;;;;;4.47;1.77;;;10.50;1.00;;;;;;5053842;28;20370;-67
2023/04/24 01:56:16;;;;;;;2.22;2.03;;;10.40;1.00;;;;;;5053475;28;20053;-67
2023/04/24 01:58:42;;;;;;;4.20;2.05;;;10.50;99.90;;;;;;5053915;28;20020;-67
2023/04/24 02:01:08;;;;;;;3.60;2.00;;;10.40;99.90;;;;;;5052975;28;20053;-67
2023/04/24 02:03:33;;;;;;;2.17;1.92;;;10.50;99.90;;;;;;5053361;28;20067;-67
2023/04/24 02:05:59;;;;;;;4.22;2.13;;;10.60;99.90;;;;;;5053767;28;20533;-67
2023/04/24 02:08:24;;;;;;;2.63;1.60;;;10.60;99.90;;;;;;5053595;28;20078;-67
2023/04/24 02:10:50;;;;;;;3.20;1.90;;;10.60;99.90;;;;;;5053504;28;20025;-67
2023/04/24 02:13:16;;;;;;;4.47;1.77;;;10.70;99.90;;;;;;5053173;28;20029;-67
2023/04/24 02:15:41;;;;;;;2.40;1.83;;;10.80;99.90;;;;;;5052665;28;20032;-67
2023/04/24 02:18:07;;;;;;;3.20;2.00;;;10.80;99.90;;;;;;5054277;28;20021;-67
2023/04/24 02:20:33;;;;;;;2.35;1.73;;;10.80;99.90;;;;;;5056978;28;20108;-67
2023/04/24 02:22:59;;;;;;;2.45;1.98;;;10.80;99.90;;;;;;5057123;28;20032;-67
2023/04/24 02:25:25;;;;;;;2.33;1.85;;;10.80;99.90;;;;;;5056577;28;20024;-67
2023/04/24 02:27:50;;;;;;;2.60;1.88;;;10.70;99.90;;;;;;5057073;28;20083;-67
2023/04/24 02:30:16;;;;;;;3.03;2.38;;;10.70;99.90;;;;;;5057377;28;20021;-67
2023/04/24 02:32:41;;;;;;;5.10;2.10;;;10.60;99.90;;;;;;5056295;28;20052;-67
2023/04/24 02:35:07;;;;;;;2.67;2.15;;;10.60;1.00;;;;;;5056763;28;20040;-67
2023/04/24 02:37:32;;;;;;;4.13;1.90;;;10.50;1.00;;;;;;5057238;28;20032;-67
2023/04/24 02:39:58;;;;;;;2.95;2.25;;;10.50;1.00;;;;;;5056195;28;20022;-67
2023/04/24 02:42:24;;;;;;;4.43;2.40;;;10.50;1.00;;;;;;5057103;28;20040;-67
2023/04/24 02:44:51;;;;;;;2.88;2.30;;;10.60;1.00;;;;;;5055687;28;20021;-67
2023/04/24 02:47:16;;;;;;;3.80;2.20;;;10.60;1.00;;;;;;5056965;28;20036;-67
2023/04/24 02:49:42;;;;;;;5.78;2.50;;;10.60;1.00;;;;;;5056415;28;20040;-67
2023/04/24 02:52:07;;;;;;;3.10;2.40;;;10.60;1.00;;;;;;5056183;28;20387;-67
2023/04/24 02:54:33;;;;;;;3.88;2.40;;;10.60;1.00;;;;;;5056915;28;20025;-67
2023/04/24 02:56:58;;;;;;;4.53;2.78;;;10.50;35.10;;;;;;5056722;28;20104;-67
2023/04/24 02:59:24;;;;;;;2.75;2.45;;;10.50;48.90;;;;;;5056762;28;20025;-67
2023/04/24 03:01:49;;;;;;;3.53;2.38;;;10.50;99.90;;;;;;5056751;28;20025;-67
2023/04/24 03:04:15;;;;;;;5.30;2.42;;;10.50;99.90;;;;;;5056078;28;20060;-67
2023/04/24 03:06:40;;;;;;;6.97;2.70;;;10.50;99.90;;;;;;5055846;28;20159;-67
2023/04/24 03:09:06;;;;;;;4.63;2.38;;;10.50;99.90;;;;;;5056182;28;20431;-67
2023/04/24 03:11:32;;;;;;;5.55;2.85;;;10.50;99.90;;;;;;5055636;28;20032;-67
2023/04/24 03:13:57;;;;;;;3.63;2.53;;;10.50;99.90;;;;;;5056235;28;20029;-67
2023/04/24 03:16:22;;;;;;;7.25;3.00;;;10.50;99.90;;;;;;5056378;28;20540;-67
2023/04/24 03:18:48;;;;;;;9.25;2.75;;;10.40;99.90;;;;;;5056311;28;20067;-67
2023/04/24 03:21:13;;;;;;;3.58;2.88;;;10.30;99.90;;;;;;5056276;28;20051;-67
2023/04/24 03:23:39;;;;;;;4.38;3.50;;;10.20;99.90;;;;;;5055959;28;20029;-67
2023/04/24 03:26:05;;;;;;;4.68;3.00;;;10.20;99.90;;;;;;5055773;28;20032;-67
2023/04/24 03:28:30;;;;;;;8.00;4.47;;;10.10;99.90;;;;;;5056098;28;20068;-67
2023/04/24 03:30:56;;;;;;;7.80;4.75;;;10.10;99.90;;;;;;5055580;28;20375;-67
2023/04/24 03:33:21;;;;;;;5.60;4.72;;;10.00;99.90;;;;;;5035326;28;20029;-67
2023/04/24 03:35:47;;;;;;;7.65;5.07;;;9.90;1.00;;;;;;5036055;28;20025;-67
2023/04/24 03:38:12;;;;;;;8.63;6.28;;;9.80;1.00;;;;;;5035725;28;20388;-67
2023/04/24 03:40:38;;;;;;;10.88;7.40;;;9.70;1.00;;;;;;5036014;28;20029;-66
2023/04/24 03:43:03;;;;;;;14.50;7.75;;;9.70;1.00;;;;;;5035963;28;20022;-66
2023/04/24 03:45:29;;;;;;;12.27;8.05;;;9.60;1.00;;;;;;5035607;28;20051;-67
2023/04/24 03:47:54;;;;;;;13.95;9.52;;;9.50;1.00;;;;;;5035350;28;20044;-67
2023/04/24 03:50:20;;;;;;;15.30;9.88;;;9.50;1.00;;;;;;5035621;28;20029;-67
2023/04/24 03:52:46;;;;;;;12.98;9.95;;;9.50;1.00;;;;;;5035202;28;20045;-67
2023/04/24 03:55:12;;;;;;;13.93;9.90;;;9.50;1.00;;;;;;5034953;28;20029;-67
2023/04/24 03:57:39;;;;;;;16.20;11.35;;;9.60;1.00;;;;;;5035575;28;20526;-67
2023/04/24 04:00:06;;;;;;;15.95;10.48;;;9.60;1.00;;;;;;5035009;28;20482;-68
2023/04/24 04:02:31;;;;;;;13.73;10.32;;;9.60;1.00;;;;;;5035283;28;20525;-68
2023/04/24 04:04:57;;;;;;;14.57;10.40;;;9.60;1.00;;;;;;5035472;28;20077;-68
2023/04/24 04:07:22;;;;;;;16.05;11.40;;;9.60;1.00;;;;;;5035244;28;20111;-67
2023/04/24 04:09:48;;;;;;;15.75;10.98;;;9.60;1.00;;;;;;5035353;28;20037;-67
2023/04/24 04:12:13;;;;;;;18.83;11.68;;;9.60;1.00;;;;;;5034778;28;20121;-67
2023/04/24 04:14:39;;;;;;;15.05;11.00;;;9.60;1.00;;;;;;5034727;28;20522;-67
2023/04/24 04:17:04;;;;;;;21.60;12.00;;;9.60;1.00;;;;;;5034488;28;20028;-67
2023/04/24 04:19:30;;;;;;;19.60;11.68;;;9.60;1.00;;;;;;5034654;28;20041;-67
2023/04/24 04:21:56;;;;;;;18.80;11.27;;;9.60;1.00;;;;;;5034783;28;20432;-67
2023/04/24 04:24:22;;;;;;;17.83;11.93;;;9.60;1.00;;;;;;5035094;28;20033;-67
2023/04/24 04:26:50;;;;;;;18.55;11.82;;;9.70;1.00;;;;;;5034303;28;20490;-68
2023/04/24 04:29:17;;;;;;;20.55;12.40;;;9.70;1.00;;;;;;5033983;28;20028;-67
2023/04/24 04:31:42;;;;;;;24.00;12.88;;;9.70;1.00;;;;;;5033651;28;20045;-67
2023/04/24 04:34:08;;;;;;;25.77;13.73;;;9.70;1.00;;;;;;5034593;28;20036;-67
2023/04/24 04:36:36;;;;;;;24.10;13.07;;;9.70;1.00;;;;;;5034845;28;20021;-67
2023/04/24 04:39:02;;;;;;;25.33;14.65;;;9.70;1.00;;;;;;5034478;28;20040;-67
2023/04/24 04:41:28;;;;;;;20.50;13.48;;;9.70;1.00;;;;;;5033862;28;20415;-67
2023/04/24 04:43:53;;;;;;;25.73;13.73;;;9.70;1.00;;;;;;5034483;28;20046;-67
2023/04/24 04:46:19;;;;;;;22.25;13.90;;;9.80;1.00;;;;;;5034138;28;20107;-67
2023/04/24 04:48:45;;;;;;;22.02;14.07;;;9.80;1.00;;;;;;5034342;28;20456;-67
2023/04/24 04:51:11;;;;;;;23.35;14.45;;;9.80;1.00;;;;;;5034055;28;20463;-68
2023/04/24 04:53:37;;;;;;;22.88;15.27;;;9.80;1.00;;;;;;5033325;28;20029;-67
2023/04/24 04:56:02;;;;;;;24.15;14.65;;;9.80;1.00;;;;;;5034422;28;20033;-67
2023/04/24 04:58:28;;;;;;;24.95;14.55;;;9.90;1.00;;;;;;5034477;28;20048;-67
2023/04/24 05:00:53;;;;;;;21.55;14.20;;;9.80;1.00;;;;;;5034422;28;20025;-67
2023/04/24 05:03:19;;;;;;;39.58;16.17;;;9.90;1.00;;;;;;5033864;28;20448;-67
2023/04/24 05:05:45;;;;;;;22.75;14.95;;;9.90;1.00;;;;;;5033923;28;20120;-67
2023/04/24 05:08:10;;;;;;;26.02;15.45;;;9.90;1.00;;;;;;5034174;28;20112;-67
2023/04/24 05:10:36;;;;;;;24.10;16.05;;;9.90;1.00;;;;;;5034065;28;20029;-67
2023/04/24 05:13:03;;;;;;;27.60;15.55;;;9.90;1.00;;;;;;5033536;28;20524;-67
2023/04/24 05:15:29;;;;;;;22.52;15.88;;;9.90;1.00;;;;;;5033061;28;20026;-67
2023/04/24 05:17:54;;;;;;;20.83;14.88;;;10.00;1.00;;;;;;5033994;28;20037;-67
2023/04/24 05:20:20;;;;;;;21.40;15.57;;;9.90;1.00;;;;;;5034118;28;20033;-67
2023/04/24 05:22:45;;;;;;;22.77;15.15;;;10.00;1.00;;;;;;5033838;28;20037;-67
2023/04/24 05:25:12;;;;;;;25.35;16.38;;;9.90;1.00;;;;;;5034101;28;20065;-67
2023/04/24 05:27:38;;;;;;;22.45;16.70;;;10.00;1.00;;;;;;5033824;28;20033;-66
2023/04/24 05:30:04;;;;;;;25.60;17.05;;;9.90;1.00;;;;;;5033726;28;20033;-67
2023/04/24 05:32:30;;;;;;;22.88;16.10;;;10.00;1.00;;;;;;5033137;28;20407;-67
2023/04/24 05:34:55;;;;;;;23.25;16.08;;;10.00;1.00;;;;;;5033751;28;20029;-67
2023/04/24 05:37:21;;;;;;;24.52;15.93;;;10.00;1.00;;;;;;5033456;28;20149;-67
2023/04/24 05:39:46;;;;;;;20.27;15.00;;;10.00;1.00;;;;;;5033493;28;20109;-67
2023/04/24 05:42:12;;;;;;;24.88;15.90;;;10.00;1.00;;;;;;5033083;28;20040;-67
2023/04/24 05:44:37;;;;;;;27.27;16.73;;;10.00;1.00;;;;;;5033298;28;20034;-67
2023/04/24 05:47:03;;;;;;;28.08;16.98;;;10.00;1.00;;;;;;5033574;28;20025;-67
2023/04/24 05:49:29;;;;;;;27.08;16.77;;;10.00;1.00;;;;;;5033897;28;20037;-67
2023/04/24 05:51:54;;;;;;;27.30;16.85;;;10.00;1.00;;;;;;5033111;28;20494;-67
2023/04/24 05:54:20;;;;;;;26.40;16.40;;;10.00;1.00;;;;;;5036161;28;20490;-67
2023/04/24 05:56:46;;;;;;;31.17;17.00;;;10.00;1.00;;;;;;5037466;28;20597;-66
2023/04/24 05:59:11;;;;;;;25.45;16.27;;;10.10;1.00;;;;;;5036350;28;20056;-67
2023/04/24 06:01:37;;;;;;;24.83;16.38;;;10.20;1.00;;;;;;5036982;28;20033;-67
2023/04/24 06:04:04;;;;;;;21.50;15.52;;;10.30;1.00;;;;;;5036896;28;20455;-67
2023/04/24 06:06:30;;;;;;;25.08;15.82;;;10.50;99.90;;;;;;5037525;28;20055;-67
2023/04/24 06:08:56;;;;;;;21.30;16.13;;;10.50;99.90;;;;;;5036601;28;20108;-67
2023/04/24 06:11:22;;;;;;;22.50;15.38;;;10.40;99.90;;;;;;5036670;28;20112;-67
2023/04/24 06:13:48;;;;;;;24.38;15.82;;;10.30;99.90;;;;;;5036089;28;20136;-67
2023/04/24 06:16:13;;;;;;;24.77;16.13;;;10.30;99.90;;;;;;5036080;28;20075;-67
2023/04/24 06:18:39;;;;;;;22.15;14.93;;;10.20;99.90;;;;;;5036217;28;20025;-67
2023/04/24 06:21:05;;;;;;;21.73;14.43;;;10.20;99.90;;;;;;5036136;28;20014;-67
2023/04/24 06:23:32;;;;;;;21.38;14.55;;;10.10;99.90;;;;;;5036165;28;20033;-67
2023/04/24 06:25:58;;;;;;;18.70;14.13;;;10.10;99.90;;;;;;5036216;28;20025;-67
2023/04/24 06:28:24;;;;;;;19.35;13.23;;;10.10;99.90;;;;;;5036250;28;20029;-67
2023/04/24 06:30:50;;;;;;;17.60;12.20;;;10.20;99.90;;;;;;5036295;28;20441;-66
2023/04/24 06:33:16;;;;;;;17.60;11.18;;;10.20;99.90;;;;;;5035450;28;20045;-67
2023/04/24 06:35:41;;;;;;;15.82;11.60;;;10.30;99.90;;;;;;5036243;28;20022;-67
2023/04/24 06:38:07;;;;;;;14.73;10.63;;;10.20;99.90;;;;;;5036367;28;20029;-67
2023/04/24 06:40:33;;;;;;;13.15;10.18;;;10.20;99.90;;;;;;5035795;28;20057;-67
2023/04/24 06:42:59;;;;;;;13.65;9.93;;;10.10;99.90;;;;;;5036098;28;20033;-67
2023/04/24 06:45:25;;;;;;;13.50;10.23;;;10.10;99.90;;;;;;5036109;28;20037;-67
2023/04/24 06:47:51;;;;;;;16.52;10.50;;;10.00;1.00;;;;;;5035167;28;20036;-67
2023/04/24 06:50:16;;;;;;;15.93;10.07;;;10.00;1.00;;;;;;5036205;28;20121;-67
2023/04/24 06:52:42;;;;;;;14.77;10.73;;;10.00;1.00;;;;;;5036051;28;20065;-67
2023/04/24 06:55:08;;;;;;;15.20;9.90;;;10.00;1.00;;;;;;5035800;28;20060;-67
2023/04/24 06:57:33;;;;;;;18.35;10.57;;;9.90;1.00;;;;;;5035883;28;20021;-67
2023/04/24 06:59:59;;;;;;;17.58;10.65;;;10.00;1.00;;;;;;5039184;28;20478;-67
2023/04/24 07:02:25;;;;;;;13.65;10.18;;;10.00;1.00;;;;;;5055742;28;20061;-67
2023/04/24 07:04:51;;;;;;;14.35;10.10;;;10.00;1.00;;;;;;5045600;28;20414;-67
2023/04/24 07:07:16;;;;;;;13.18;10.00;;;10.00;1.00;;;;;;5035821;28;20032;-66
2023/04/24 07:09:42;;;;;;;11.60;9.38;;;10.00;1.00;;;;;;5032071;28;20494;-66
2023/04/24 07:12:10;;;;;;;12.48;8.95;;;10.30;1.00;;;;;;5032922;28;20487;-66
2023/04/24 07:14:36;;;;;;;8.98;6.90;;;10.40;1.00;;;;;;5015590;28;20026;-67
2023/04/24 07:17:03;;;;;;;13.43;8.35;;;10.30;99.90;;;;;;5033502;28;20399;-66
2023/04/24 07:19:29;;;;;;;11.02;7.72;;;10.20;99.90;;;;;;5035487;28;20459;-66
2023/04/24 07:21:55;;;;;;;12.15;8.30;;;10.10;1.00;;;;;;5036043;28;20029;-66
2023/04/24 07:24:20;;;;;;;13.10;8.23;;;10.00;1.00;;;;;;5034282;28;20178;-66
2023/04/24 07:26:46;;;;;;;9.40;7.55;;;10.00;1.00;;;;;;5035167;28;20026;-66
2023/04/24 07:29:13;;;;;;;14.90;8.50;;;9.90;1.00;;;;;;5019534;28;20022;-66
2023/04/24 07:31:38;;;;;;;15.18;7.70;;;10.00;1.00;;;;;;5029639;28;20050;-66
2023/04/24 07:34:04;;;;;;;13.13;7.22;;;10.10;1.00;;;;;;5035318;28;20029;-66
2023/04/24 07:36:29;;;;;;;12.52;6.32;;;10.30;99.90;;;;;;5034421;28;20028;-66
2023/04/24 07:38:56;;;;;;;12.90;6.30;;;10.50;99.90;;;;;;5023369;28;20037;-67
2023/04/24 07:41:23;;;;;;;7.93;6.50;;;10.50;99.90;;;;;;5030503;28;20109;-66
2023/04/24 07:43:49;;;;;;;7.88;6.45;;;10.60;99.90;;;;;;5015314;28;20033;-66
2023/04/24 07:46:15;;;;;;;9.88;6.65;;;10.70;99.90;;;;;;5015347;28;20109;-66
2023/04/24 07:48:41;;;;;;;9.10;6.30;;;10.60;99.90;;;;;;5014915;28;20490;-66
2023/04/24 07:51:06;;;;;;;7.93;7.13;;;10.60;99.90;;;;;;5027685;28;20033;-65
2023/04/24 07:53:32;;;;;;;8.90;5.80;;;10.40;99.90;;;;;;5039410;28;20449;-68
2023/04/24 07:55:57;;;;;;;7.78;6.72;;;10.30;99.90;;;;;;5016374;28;20026;-66
2023/04/24 07:58:23;;;;;;;11.55;6.78;;;10.10;1.00;;;;;;5022162;28;20159;-65
2023/04/24 08:00:49;;;;;;;8.75;6.93;;;9.90;1.00;;;;;;5018639;28;20024;-65
2023/04/24 08:03:14;;;;;;;9.05;6.90;;;9.80;1.00;;;;;;5014971;28;20034;-66
2023/04/24 08:05:41;;;;;;;10.73;7.20;;;9.80;1.00;;;;;;5017473;28;20041;-66
2023/04/24 08:08:07;;;;;;;8.93;7.75;;;9.80;1.00;;;;;;5032777;28;20072;-65
2023/04/24 08:10:32;;;;;;;9.32;6.90;;;9.80;1.00;;;;;;5026460;28;20044;-66
2023/04/24 08:12:58;;;;;;;8.73;6.93;;;9.80;1.00;;;;;;5036572;28;20029;-65
2023/04/24 08:15:23;;;;;;;7.88;6.25;;;9.90;1.00;;;;;;5034022;28;20131;-65
2023/04/24 08:17:50;;;;;;;7.13;4.95;;;10.00;1.00;;;;;;5033740;28;20036;-65
2023/04/24 08:20:15;;;;;;;7.25;5.13;;;10.00;1.00;;;;;;5033821;28;20022;-65
2023/04/24 08:22:42;;;;;;;4.68;4.00;;;10.00;1.00;;;;;;5023102;28;20041;-65
2023/04/24 08:25:09;;;;;;;6.20;3.72;;;9.80;1.00;;;;;;5014647;28;20040;-65
2023/04/24 08:27:36;;;;;;;6.07;4.50;;;9.60;1.00;;;;;;5024437;28;20115;-65
2023/04/24 08:30:02;;;;;;;4.63;4.10;;;9.40;25.90;;;;;;5018418;28;20030;-66
2023/04/24 08:32:28;;;;;;;5.45;4.65;;;9.30;28.20;;;;;;5032272;28;20483;-66
2023/04/24 08:34:56;;;;;;;5.40;4.90;;;9.20;50.80;;;;;;5034405;28;20455;-64
2023/04/24 08:37:22;;;;;;;5.80;4.55;;;9.10;53.60;;;;;;5034420;28;20033;-66
2023/04/24 08:39:47;;;;;;;9.23;6.05;;;9.10;72.20;;;;;;5032457;28;20029;-64
2023/04/24 08:42:14;;;;;;;7.95;5.30;;;9.10;94.00;;;;;;5024416;28;20033;-65
2023/04/24 08:44:40;;;;;;;6.80;5.50;;;9.00;99.00;;;;;;5041275;28;20206;-66
2023/04/24 08:47:08;;;;;;;7.82;6.32;;;9.00;99.90;;;;;;5053019;28;20455;-64
2023/04/24 08:49:35;;;;;;;7.85;6.28;;;9.10;99.90;;;;;;5053939;28;20029;-66
2023/04/24 08:52:02;;;;;;;4.32;3.92;;;9.20;99.90;;;;;;5032167;28;20025;-65
2023/04/24 08:54:28;;;;;;;4.32;3.72;;;9.30;66.90;;;;;;5033733;28;20467;-71
2023/04/24 08:57:01;;;;;;;4.18;2.95;;;9.40;49.20;;;;;;5028844;28;20066;-65
2023/04/24 08:59:28;;;;;;;5.18;2.78;;;9.60;42.60;;;;;;5014421;28;20033;-65
2023/04/24 09:01:55;;;;;;;7.10;2.80;;;9.60;22.50;;;;;;5012826;28;20029;-65
2023/04/24 09:04:24;;;;;;;2.72;1.60;;;9.60;27.90;;;;;;5024281;28;20041;-65
2023/04/24 09:06:51;;;;;;;2.50;1.73;;;9.50;10.10;;;;;;5033152;28;20029;-64
2023/04/24 09:09:18;;;;;;;3.75;2.20;;;9.50;25.40;;;;;;5050678;28;20056;-64
2023/04/24 09:11:44;;;;;;;1.75;1.60;;;9.50;36.40;;;;;;5033586;28;20109;-64
2023/04/24 09:14:10;;;;;;;1.27;1.00;;;9.40;32.80;;;;;;5015910;28;20487;-64
2023/04/24 09:16:36;;;;;;;1.00;1.00;;;9.30;20.80;;;;;;5013733;28;20317;-64
2023/04/24 09:19:02;;;;;;;3.20;1.20;;;9.30;19.90;;;;;;5013674;28;20056;-66
2023/04/24 09:21:33;;;;;;;1.75;1.25;;;9.50;25.90;;;;;;5032527;28;20026;-65
2023/04/24 09:24:00;;;;;;;1.90;1.30;;;9.40;9.50;;;;;;5033239;28;20022;-65
2023/04/24 09:26:29;;;;;;;1.55;1.45;;;9.50;17.40;;;;;;5025636;28;20388;-65
2023/04/24 09:28:54;;;;;;;2.22;1.67;;;9.30;13.20;;;;;;5030869;28;20124;-65
2023/04/24 09:31:21;;;;;;;1.67;1.50;;;9.30;14.90;;;;;;5031272;28;20495;-68
2023/04/24 09:34:07;;;;;;;3.00;1.48;;;9.20;18.00;;;;;;5031565;28;20071;-65
2023/04/24 09:36:36;;;;;;;1.50;1.35;;;9.20;24.90;;;;;;5033456;28;20056;-65
2023/04/24 09:39:05;;;;;;;1.60;1.50;;;9.20;29.50;;;;;;5033620;28;20037;-67
2023/04/24 09:41:32;;;;;;;2.20;2.00;;;9.20;40.40;;;;;;5032259;28;20037;-67
2023/04/24 09:44:12;;;;;;;2.63;2.22;;;9.10;46.30;;;;;;5033206;28;20048;-65
2023/04/24 09:46:37;;;;;;;2.10;1.90;;;9.00;63.30;;;;;;5033264;28;20371;-66
2023/04/24 09:49:15;;;;;;;3.33;1.63;;;9.00;65.20;;;;;;5033613;28;20041;-65
2023/04/24 09:51:40;;;;;;;2.20;1.98;;;8.90;87.10;;;;;;5032695;28;20179;-65
2023/04/24 09:54:16;;;;;;;1.65;1.55;;;8.90;91.50;;;;;;5032935;28;20128;-65
2023/04/24 09:56:46;;;;;;;2.38;1.70;;;8.90;99.90;;;;;;5031705;28;20039;-64
2023/04/24 09:59:13;;;;;;;1.70;1.60;;;9.00;99.90;;;;;;5032844;28;20030;-64
2023/04/24 10:01:41;;;;;;;2.70;1.73;;;9.00;99.90;;;;;;5033149;28;20026;-65
2023/04/24 10:04:15;;;;;;;2.95;1.80;;;8.90;99.90;;;;;;5032615;28;20037;-71
2023/04/24 10:06:42;;;;;;;3.80;2.03;;;8.80;99.90;;;;;;5032055;28;20133;-72
2023/04/24 10:09:10;;;;;;;2.60;2.40;;;8.80;99.90;;;;;;5030439;28;20030;-70
2023/04/24 10:11:37;;;;;;;3.05;2.67;;;8.70;99.90;;;;;;5032237;28;20022;-70
2023/04/24 10:14:03;;;;;;;3.80;2.38;;;8.70;99.90;;;;;;5032538;28;20103;-72
2023/04/24 10:16:30;;;;;;;3.92;2.95;;;8.70;99.90;;;;;;5033038;28;20026;-71
2023/04/24 10:18:58;;;;;;;3.72;3.40;;;8.80;99.90;;;;;;5031410;28;20021;-71
2023/04/24 10:21:24;;;;;;;6.50;4.53;;;9.00;99.90;;;;;;5031664;28;20029;-72
2023/04/24 10:23:51;;;;;;;9.07;6.00;;;9.30;99.90;;;;;;5033576;28;20025;-72
2023/04/24 10:26:17;;;;;;;10.57;7.05;;;9.40;99.90;;;;;;5032637;28;20032;-72
2023/04/24 10:28:45;;;;;;;8.32;6.95;;;9.40;99.90;;;;;;5033023;28;20025;-72
2023/04/24 10:31:12;;;;;;;7.85;7.05;;;9.30;99.90;;;;;;5032520;28;20057;-70
2023/04/24 10:33:41;;;;;;;8.88;7.57;;;9.30;99.90;;;;;;5031181;28;20025;-70
2023/04/24 10:36:09;;;;;;;7.47;6.78;;;9.40;99.90;;;;;;5031327;28;20503;-71
2023/04/24 10:38:35;;;;;;;9.50;7.68;;;9.50;99.90;;;;;;5032817;28;20021;-72
2023/04/24 10:41:13;;;;;;;6.88;6.10;;;9.60;99.90;;;;;;5035955;28;20017;-72
2023/04/24 10:43:40;;;;;;;9.63;6.88;;;9.60;99.90;;;;;;5036379;28;20128;-72
2023/04/24 10:46:07;;;;;;;6.00;5.40;;;9.70;99.90;;;;;;5026603;28;20029;-71
2023/04/24 10:48:33;;;;;;;6.10;5.43;;;9.60;99.90;;;;;;5016371;28;20125;-72
2023/04/24 10:50:58;;;;;;;5.18;4.47;;;9.60;99.90;;;;;;5016791;28;20169;-72
2023/04/24 10:53:28;;;;;;;4.13;3.75;;;9.50;99.90;;;;;;5016604;28;20033;-71
2023/04/24 10:58:38;;;;;;;6.18;5.05;;;9.30;99.90;;;;;;5150201;27;20389;-70
2023/04/24 11:01:04;;;;;;;6.97;4.70;;;9.20;99.90;;;;;;5150121;27;20106;-70
2023/04/24 11:03:31;;;;;;;5.47;4.47;;;9.00;99.90;;;;;;5151697;27;20127;-70
2023/04/24 11:06:04;;;;;;;4.57;4.10;;;8.90;99.90;;;;;;5152633;27;20026;-72
2023/04/24 11:08:32;;;;;;;5.20;3.72;;;8.80;99.90;;;;;;5152878;27;20027;-72
2023/04/24 11:11:15;;;;;;;5.88;3.95;;;8.90;99.90;;;;;;5152099;27;20019;-72
2023/04/24 11:16:38;;;;;;;9.27;4.90;;;8.80;99.90;;;;;;5110234;27;20396;-71
2023/04/24 11:19:07;;;;;;;7.07;5.15;;;9.00;99.90;;;;;;5111614;28;20477;-72
2023/04/24 11:21:43;;;;;;;7.45;5.20;;;8.80;99.90;;;;;;5111783;28;20362;-73
2023/04/24 11:24:37;;;;;;;7.15;5.10;;;8.80;99.90;;;;;;5111176;28;20023;-73
2023/04/24 11:30:02;;;;;;;8.98;6.43;;;8.80;99.90;;;;;;5069091;28;20406;-71
2023/04/24 11:35:24;;;;;;;8.27;6.57;;;8.90;99.90;;;;;;5086284;28;20891;-72
2023/04/24 11:37:53;;;;;;;8.35;6.50;;;9.00;99.90;;;;;;5069136;28;20483;-74
2023/04/24 11:40:22;;;;;;;13.35;6.82;;;8.90;99.90;;;;;;5074710;28;20032;-73
2023/04/24 11:42:49;;;;;;;11.93;7.20;;;8.80;99.90;;;;;;5080761;28;20390;-74
2023/04/24 11:45:23;;;;;;;9.80;6.72;;;8.80;99.90;;;;;;5070340;28;20025;-74
2023/04/24 11:47:48;;;;;;;13.13;7.13;;;8.70;99.90;;;;;;5070901;28;20502;-74
2023/04/24 11:50:16;;;;;;;9.77;6.63;;;8.90;99.90;;;;;;5070489;28;20127;-74
2023/04/24 11:52:44;;;;;;;12.52;7.65;;;8.90;99.90;;;;;;5070366;28;20079;-74
2023/04/24 11:55:22;;;;;;;10.77;6.55;;;9.00;99.90;;;;;;5070363;28;20112;-75
2023/04/24 11:57:50;;;;;;;12.30;6.47;;;8.90;99.90;;;;;;5070670;28;20532;-75
2023/04/24 12:00:18;;;;;;;17.02;7.80;;;8.80;99.90;;;;;;5070621;28;20120;-74
2023/04/24 12:02:44;;;;;;;14.10;7.22;;;8.90;99.90;;;;;;5070485;28;20343;-74
2023/04/24 12:05:18;;;;;;;18.13;7.90;;;8.90;99.90;;;;;;5070538;28;20056;-75
2023/04/24 12:07:44;;;;;;;17.40;7.05;;;8.90;99.90;;;;;;5070433;28;20025;-74
2023/04/24 12:10:10;;;;;;;18.05;8.02;;;9.00;99.90;;;;;;5082121;28;20142;-75
2023/04/24 12:12:35;;;;;;;15.18;7.55;;;9.00;99.90;;;;;;5068923;28;20486;-73
2023/04/24 12:15:06;;;;;;;15.23;7.38;;;9.00;99.90;;;;;;5080261;28;20059;-74
2023/04/24 12:17:33;;;;;;;15.27;7.65;;;9.00;99.90;;;;;;5080867;28;20028;-74
2023/04/24 12:20:02;;;;;;;16.27;8.35;;;9.00;99.90;;;;;;5069463;28;20032;-74
2023/04/24 12:22:29;;;;;;;19.02;8.90;;;9.00;99.90;;;;;;5068902;28;20025;-74
2023/04/24 12:25:01;;;;;;;18.02;8.10;;;8.90;99.90;;;;;;5068811;28;20116;-74
2023/04/24 12:27:30;;;;;;;17.85;8.50;;;8.90;99.90;;;;;;5068398;28;20094;-74
2023/04/24 12:29:57;;;;;;;22.58;9.32;;;9.00;99.90;;;;;;5070036;28;20047;-74
2023/04/24 12:32:24;;;;;;;23.08;8.80;;;9.10;99.90;;;;;;5069705;28;20032;-73
2023/04/24 12:34:53;;;;;;;17.92;9.18;;;9.20;99.90;;;;;;5069048;28;20406;-74
2023/04/24 12:37:24;;;;;;;25.70;9.13;;;9.30;99.90;;;;;;5050335;28;20025;-74
2023/04/24 12:40:11;;;;;;;21.08;8.95;;;9.30;99.90;;;;;;5050286;28;20040;-74
2023/04/24 12:42:47;;;;;;;17.23;8.70;;;9.30;99.90;;;;;;5048012;28;20028;-74
2023/04/24 12:45:13;;;;;;;21.30;10.27;;;9.40;99.90;;;;;;5044030;28;20112;-74
2023/04/24 12:47:40;;;;;;;18.90;9.38;;;9.50;99.90;;;;;;5035918;28;20025;-75
2023/04/24 12:50:08;;;;;;;18.88;8.80;;;9.50;99.90;;;;;;5037445;28;20029;-75
2023/04/24 12:52:34;;;;;;;19.52;9.20;;;9.40;99.90;;;;;;5038203;28;20037;-76
2023/04/24 12:55:01;;;;;;;21.42;10.77;;;9.60;99.90;;;;;;5036605;28;20033;-73
2023/04/24 12:57:29;;;;;;;28.08;9.90;;;9.50;99.90;;;;;;5036491;28;20526;-74